Adelphia, New Jersey
Current Conditions -  °F | °C
As of 12:35 AM on Monday 20 Oct 2014 (Local Time) from KBLM Reporting Station
Clear Clear  
Wind Chill:   Ceiling: Unl
Heat Index:   Visibility: 10mi
Dew Point: -3°   Wind: 5mph
Humidity: 57%   Direction: 300°WNW
Pressure: 30.08"   Gusts: NA
Location:  40.22°N, 74.26°W
Report Text: KBLM 200435Z AUTO 30004KT 10SM CLR 05/M03 A3008 RMK AO1
Loading
Personal Weather Stations






























Interactive Weather Map New forecast layout! Learn more

10-Day Weather Forecast

Advertisements
Track Severe Weather on mobile